This is the latest recevied weather packets stored in our database for station/object K7GFH-13. If no packets are shown the sender has not sent any weather packets the latest 10 day(s).
| Time | Temp. | Humidity | Pressure | Rain* | Wind** | Luminosity | Snow |
|---|---|---|---|---|---|---|---|
| 1777509518 | 20.56° C | 45% | 1022 hPa | 0 mm | - | 274 W/m² | - |
| 1777508615 | 20° C | 45% | 1022 hPa | 0 mm | - | 315 W/m² | - |
| 1777507712 | 20.56° C | 45% | 1021.8 hPa | 0 mm | - | 358 W/m² | - |
| 1777506810 | 20.56° C | 46% | 1022.3 hPa | 0 mm | - | 399 W/m² | - |
| 1777505910 | 20.56° C | 47% | 1022.3 hPa | 0 mm | - | 434 W/m² | - |
| 1777505005 | 20.56° C | 45% | 1022.4 hPa | 0 mm | - | 479 W/m² | - |
| 1777504100 | 20° C | 47% | 1022.5 hPa | 0 mm | - | 513 W/m² | - |
| 1777503195 | 18.89° C | 48% | 1022.7 hPa | 0 mm | - | 546 W/m² | - |
| 1777502292 | 18.89° C | 48% | 1022.9 hPa | 0 mm | - | 576 W/m² | - |
| 1777501389 | 18.89° C | 49% | 1023.3 hPa | 0 mm | - | 600 W/m² | - |
| 1777500487 | 17.78° C | 52% | 1023.1 hPa | 0 mm | - | 625 W/m² | - |
| 1777499582 | 18.89° C | 49% | 1023.4 hPa | 0 mm | - | 649 W/m² | - |
| 1777498679 | 17.78° C | 53% | 1023.5 hPa | 0 mm | - | 667 W/m² | - |
| 1777497775 | 17.78° C | 52% | 1023.8 hPa | 0 mm | - | 680 W/m² | - |
| 1777496871 | 17.22° C | 53% | 1023.8 hPa | 0 mm | - | 694 W/m² | - |
| 1777495972 | 17.22° C | 52% | 1023.8 hPa | 0 mm | - | 705 W/m² | - |
| 1777495068 | 16.11° C | 54% | 1024 hPa | 0 mm | - | 713 W/m² | - |
| 1777494164 | 16.11° C | 54% | 1024.1 hPa | 0 mm | - | 717 W/m² | - |
| 1777493263 | 15.56° C | 56% | 1024.2 hPa | 0 mm | - | 717 W/m² | - |
| 1777492362 | 15.56° C | 56% | 1024.3 hPa | 0 mm | - | 713 W/m² | - |
| 1777491458 | 15.56° C | 56% | 1024.5 hPa | 0 mm | - | 707 W/m² | - |
| 1777490553 | 14.44° C | 57% | 1024.6 hPa | 0 mm | - | 699 W/m² | - |
| 1777489651 | 13.89° C | 60% | 1024.6 hPa | 0 mm | - | 686 W/m² | - |
| 1777488747 | 13.89° C | 61% | 1025 hPa | 0 mm | - | 671 W/m² | - |
| 1777487846 | 13.89° C | 59% | 1024.9 hPa | 0 mm | - | 654 W/m² | - |
* Rain latest hour (hover to see other rain measurements)
** Current wind speed in m/s (hover to see current wind gust speed)